sensor_id;sensor_type;location;lat;lon;timestamp;pressure;altitude;pressure_sealevel;temperature;humidity
59391;BME280;53405;57.012;40.984;2022-07-30T00:02:33;100247.09;;;16.14;76.80
59391;BME280;53405;57.012;40.984;2022-07-30T00:05:20;100239.19;;;16.00;77.80
59391;BME280;53405;57.012;40.984;2022-07-30T00:08:08;100250.16;;;16.11;77.23
59391;BME280;53405;57.012;40.984;2022-07-30T00:10:55;100251.59;;;16.06;77.46
59391;BME280;53405;57.012;40.984;2022-07-30T00:13:43;100242.84;;;15.99;78.01
59391;BME280;53405;57.012;40.984;2022-07-30T00:16:30;100238.75;;;15.97;78.19
59391;BME280;53405;57.012;40.984;2022-07-30T00:19:18;100243.69;;;15.93;77.72
59391;BME280;53405;57.012;40.984;2022-07-30T00:22:06;100245.13;;;15.82;78.97
59391;BME280;53405;57.012;40.984;2022-07-30T00:24:53;100250.41;;;15.82;78.97
59391;BME280;53405;57.012;40.984;2022-07-30T00:27:41;100239.59;;;15.70;78.98
59391;BME280;53405;57.012;40.984;2022-07-30T00:30:28;100243.44;;;15.75;79.65
59391;BME280;53405;57.012;40.984;2022-07-30T00:33:16;100248.56;;;15.76;79.28
59391;BME280;53405;57.012;40.984;2022-07-30T00:36:04;100251.22;;;15.69;79.42
59391;BME280;53405;57.012;40.984;2022-07-30T00:38:52;100242.44;;;15.62;80.16
59391;BME280;53405;57.012;40.984;2022-07-30T00:42:00;100219.78;;;15.46;80.54
59391;BME280;53405;57.012;40.984;2022-07-30T00:44:48;100233.69;;;15.55;80.95
59391;BME280;53405;57.012;40.984;2022-07-30T00:47:37;100243.03;;;15.58;80.50
59391;BME280;53405;57.012;40.984;2022-07-30T00:50:25;100243.69;;;15.60;80.44
59391;BME280;53405;57.012;40.984;2022-07-30T00:53:12;100242.66;;;15.54;80.56
59391;BME280;53405;57.012;40.984;2022-07-30T00:56:01;100230.59;;;15.45;80.88
59391;BME280;53405;57.012;40.984;2022-07-30T00:58:49;100236.09;;;15.43;81.11
59391;BME280;53405;57.012;40.984;2022-07-30T01:01:36;100233.25;;;15.45;80.71
59391;BME280;53405;57.012;40.984;2022-07-30T01:04:24;100239.78;;;15.35;81.41
59391;BME280;53405;57.012;40.984;2022-07-30T01:07:11;100240.41;;;15.38;81.47
59391;BME280;53405;57.012;40.984;2022-07-30T01:09:59;100244.28;;;15.42;80.87
59391;BME280;53405;57.012;40.984;2022-07-30T01:12:49;100244.06;;;15.36;81.35
59391;BME280;53405;57.012;40.984;2022-07-30T01:15:38;100237.75;;;15.31;81.64
59391;BME280;53405;57.012;40.984;2022-07-30T01:18:28;100226.31;;;15.24;81.47
59391;BME280;53405;57.012;40.984;2022-07-30T01:21:39;100248.13;;;15.32;81.73
59391;BME280;53405;57.012;40.984;2022-07-30T01:24:34;100251.63;;;15.33;81.99
59391;BME280;53405;57.012;40.984;2022-07-30T01:27:24;100252.22;;;15.28;82.13
59391;BME280;53405;57.012;40.984;2022-07-30T01:30:16;100247.72;;;15.29;81.71
59391;BME280;53405;57.012;40.984;2022-07-30T01:33:06;100257.94;;;15.25;82.59
59391;BME280;53405;57.012;40.984;2022-07-30T01:35:55;100256.72;;;15.28;82.54
59391;BME280;53405;57.012;40.984;2022-07-30T01:38:45;100262.22;;;15.20;82.20
59391;BME280;53405;57.012;40.984;2022-07-30T01:41:34;100251.59;;;15.20;82.06
59391;BME280;53405;57.012;40.984;2022-07-30T01:44:23;100251.59;;;15.20;82.07
59391;BME280;53405;57.012;40.984;2022-07-30T01:47:12;100245.03;;;15.09;81.59
59391;BME280;53405;57.012;40.984;2022-07-30T01:50:04;100259.34;;;15.08;82.47
59391;BME280;53405;57.012;40.984;2022-07-30T01:52:56;100266.31;;;15.15;81.84
59391;BME280;53405;57.012;40.984;2022-07-30T01:55:45;100247.47;;;14.97;82.53
59391;BME280;53405;57.012;40.984;2022-07-30T01:58:35;100272.00;;;15.06;82.70
59391;BME280;53405;57.012;40.984;2022-07-30T02:01:52;100255.88;;;15.07;82.33
59391;BME280;53405;57.012;40.984;2022-07-30T02:04:41;100260.56;;;15.12;81.74
59391;BME280;53405;57.012;40.984;2022-07-30T02:07:37;100272.00;;;15.32;81.17
59391;BME280;53405;57.012;40.984;2022-07-30T02:13:17;100266.31;;;15.22;80.41
59391;BME280;53405;57.012;40.984;2022-07-30T02:16:16;100277.53;;;15.24;80.60
59391;BME280;53405;57.012;40.984;2022-07-30T02:19:14;100279.38;;;15.24;80.59
59391;BME280;53405;57.012;40.984;2022-07-30T02:22:05;100284.47;;;15.32;81.09
59391;BME280;53405;57.012;40.984;2022-07-30T02:24:55;100276.91;;;15.35;80.42
59391;BME280;53405;57.012;40.984;2022-07-30T02:27:57;100249.59;;;15.28;80.18
59391;BME280;53405;57.012;40.984;2022-07-30T02:30:53;100277.56;;;15.44;80.69
59391;BME280;53405;57.012;40.984;2022-07-30T02:33:47;100277.16;;;15.41;80.41
59391;BME280;53405;57.012;40.984;2022-07-30T02:36:36;100285.72;;;15.49;79.95
59391;BME280;53405;57.012;40.984;2022-07-30T02:39:28;100266.53;;;15.41;80.06
59391;BME280;53405;57.012;40.984;2022-07-30T02:42:18;100278.38;;;15.51;79.90
59391;BME280;53405;57.012;40.984;2022-07-30T02:45:07;100290.84;;;15.64;79.53
59391;BME280;53405;57.012;40.984;2022-07-30T02:47:57;100295.53;;;15.62;79.36
59391;BME280;53405;57.012;40.984;2022-07-30T02:50:50;100297.38;;;15.48;79.63
59391;BME280;53405;57.012;40.984;2022-07-30T02:53:39;100297.78;;;15.45;79.76
59391;BME280;53405;57.012;40.984;2022-07-30T02:56:28;100301.03;;;15.47;80.66
59391;BME280;53405;57.012;40.984;2022-07-30T02:59:17;100271.22;;;15.39;80.21
59391;BME280;53405;57.012;40.984;2022-07-30T03:02:08;100300.03;;;15.68;79.62
59391;BME280;53405;57.012;40.984;2022-07-30T03:05:00;100309.81;;;15.75;78.00
59391;BME280;53405;57.012;40.984;2022-07-30T03:07:52;100277.97;;;15.61;78.63
59391;BME280;53405;57.012;40.984;2022-07-30T03:10:41;100307.63;;;15.78;77.73
59391;BME280;53405;57.012;40.984;2022-07-30T03:13:31;100297.63;;;15.80;76.90
59391;BME280;53405;57.012;40.984;2022-07-30T03:16:20;100303.72;;;15.87;77.46
59391;BME280;53405;57.012;40.984;2022-07-30T03:19:10;100307.81;;;15.97;76.53
59391;BME280;53405;57.012;40.984;2022-07-30T03:22:00;100309.06;;;15.94;77.01
59391;BME280;53405;57.012;40.984;2022-07-30T03:24:49;100306.97;;;16.03;76.56
59391;BME280;53405;57.012;40.984;2022-07-30T03:27:38;100308.00;;;16.15;76.62
59391;BME280;53405;57.012;40.984;2022-07-30T03:30:27;100313.50;;;16.14;75.84
59391;BME280;53405;57.012;40.984;2022-07-30T03:33:15;100315.34;;;16.20;75.53
59391;BME280;53405;57.012;40.984;2022-07-30T03:36:04;100308.81;;;16.09;74.57
59391;BME280;53405;57.012;40.984;2022-07-30T03:38:52;100309.81;;;16.28;74.67
59391;BME280;53405;57.012;40.984;2022-07-30T03:41:40;100313.06;;;16.37;73.58
59391;BME280;53405;57.012;40.984;2022-07-30T03:44:33;100321.88;;;16.31;73.47
59391;BME280;53405;57.012;40.984;2022-07-30T03:47:23;100310.22;;;16.25;73.35
59391;BME280;53405;57.012;40.984;2022-07-30T03:50:12;100319.81;;;16.33;73.34
59391;BME280;53405;57.012;40.984;2022-07-30T03:53:05;100321.66;;;16.39;74.13
59391;BME280;53405;57.012;40.984;2022-07-30T03:56:01;100321.22;;;16.49;73.01
59391;BME280;53405;57.012;40.984;2022-07-30T03:59:19;100322.44;;;16.53;71.67
59391;BME280;53405;57.012;40.984;2022-07-30T04:02:07;100301.19;;;16.46;72.40
59391;BME280;53405;57.012;40.984;2022-07-30T04:05:19;100310.16;;;16.52;72.22
59391;BME280;53405;57.012;40.984;2022-07-30T04:08:08;100317.44;;;16.76;70.87
59391;BME280;53405;57.012;40.984;2022-07-30T04:10:57;100319.94;;;16.65;70.83
59391;BME280;53405;57.012;40.984;2022-07-30T04:14:13;100315.00;;;16.75;67.66
59391;BME280;53405;57.012;40.984;2022-07-30T04:17:20;100311.75;;;16.73;67.78
59391;BME280;53405;57.012;40.984;2022-07-30T04:20:16;100327.03;;;16.84;68.01
59391;BME280;53405;57.012;40.984;2022-07-30T04:23:07;100301.56;;;16.56;68.64
59391;BME280;53405;57.012;40.984;2022-07-30T04:25:56;100318.72;;;16.67;69.52
59391;BME280;53405;57.012;40.984;2022-07-30T04:28:44;100290.97;;;16.50;68.46
59391;BME280;53405;57.012;40.984;2022-07-30T04:31:32;100323.75;;;16.82;68.32
59391;BME280;53405;57.012;40.984;2022-07-30T04:34:44;100331.94;;;16.94;67.77
59391;BME280;53405;57.012;40.984;2022-07-30T04:37:34;100325.88;;;17.19;66.24
59391;BME280;53405;57.012;40.984;2022-07-30T04:40:23;100325.47;;;17.15;67.01
59391;BME280;53405;57.012;40.984;2022-07-30T04:43:11;100329.53;;;17.24;65.62
59391;BME280;53405;57.012;40.984;2022-07-30T04:45:59;100335.38;;;17.40;64.92
59391;BME280;53405;57.012;40.984;2022-07-30T04:48:47;100333.94;;;17.37;64.33
59391;BME280;53405;57.012;40.984;2022-07-30T04:51:36;100339.31;;;17.30;64.42
59391;BME280;53405;57.012;40.984;2022-07-30T04:54:27;100333.22;;;17.23;64.63
59391;BME280;53405;57.012;40.984;2022-07-30T04:57:24;100326.84;;;17.24;63.70
59391;BME280;53405;57.012;40.984;2022-07-30T05:00:12;100327.44;;;17.33;63.96
59391;BME280;53405;57.012;40.984;2022-07-30T05:03:03;100330.38;;;17.50;63.89
59391;BME280;53405;57.012;40.984;2022-07-30T05:05:52;100338.22;;;17.70;62.54
59391;BME280;53405;57.012;40.984;2022-07-30T05:08:43;100333.75;;;17.64;62.83
59391;BME280;53405;57.012;40.984;2022-07-30T05:11:31;100318.94;;;17.75;60.78
59391;BME280;53405;57.012;40.984;2022-07-30T05:14:20;100328.22;;;17.65;62.64
59391;BME280;53405;57.012;40.984;2022-07-30T05:17:08;100344.16;;;17.72;61.74
59391;BME280;53405;57.012;40.984;2022-07-30T05:19:58;100330.13;;;17.90;60.93
59391;BME280;53405;57.012;40.984;2022-07-30T05:22:49;100331.53;;;17.86;61.23
59391;BME280;53405;57.012;40.984;2022-07-30T05:25:36;100321.53;;;17.88;61.66
59391;BME280;53405;57.012;40.984;2022-07-30T05:28:34;100341.25;;;18.05;60.66
59391;BME280;53405;57.012;40.984;2022-07-30T05:31:25;100335.31;;;18.03;61.70
59391;BME280;53405;57.012;40.984;2022-07-30T05:34:17;100327.94;;;18.24;61.67
59391;BME280;53405;57.012;40.984;2022-07-30T05:37:05;100335.59;;;18.39;60.02
59391;BME280;53405;57.012;40.984;2022-07-30T05:39:53;100339.47;;;18.43;59.05
59391;BME280;53405;57.012;40.984;2022-07-30T05:43:11;100310.72;;;18.27;58.74
59391;BME280;53405;57.012;40.984;2022-07-30T05:45:59;100338.19;;;18.46;58.19
59391;BME280;53405;57.012;40.984;2022-07-30T05:48:46;100336.19;;;18.41;58.34
59391;BME280;53405;57.012;40.984;2022-07-30T05:51:34;100334.34;;;18.60;58.14
59391;BME280;53405;57.012;40.984;2022-07-30T05:54:22;100337.63;;;18.62;58.94
59391;BME280;53405;57.012;40.984;2022-07-30T05:57:36;100338.28;;;18.57;59.70
59391;BME280;53405;57.012;40.984;2022-07-30T06:00:24;100322.34;;;18.51;58.71
59391;BME280;53405;57.012;40.984;2022-07-30T06:03:14;100340.88;;;18.64;58.22
59391;BME280;53405;57.012;40.984;2022-07-30T06:06:24;100340.06;;;18.64;58.17
59391;BME280;53405;57.012;40.984;2022-07-30T06:09:12;100338.25;;;18.76;58.35
59391;BME280;53405;57.012;40.984;2022-07-30T06:12:00;100334.94;;;18.81;56.74
59391;BME280;53405;57.012;40.984;2022-07-30T06:14:48;100341.09;;;18.81;57.25
59391;BME280;53405;57.012;40.984;2022-07-30T06:17:44;100338.66;;;18.80;58.54
59391;BME280;53405;57.012;40.984;2022-07-30T06:20:45;100345.03;;;18.97;58.07
59391;BME280;53405;57.012;40.984;2022-07-30T06:23:42;100346.28;;;18.94;57.64
59391;BME280;53405;57.012;40.984;2022-07-30T06:26:42;100331.25;;;19.00;56.91
59391;BME280;53405;57.012;40.984;2022-07-30T06:29:31;100326.03;;;19.05;55.92
59391;BME280;53405;57.012;40.984;2022-07-30T06:32:18;100334.63;;;19.38;54.31
59391;BME280;53405;57.012;40.984;2022-07-30T06:35:07;100334.31;;;19.16;54.34
59391;BME280;53405;57.012;40.984;2022-07-30T06:37:54;100344.16;;;19.45;53.13
59391;BME280;53405;57.012;40.984;2022-07-30T06:40:44;100348.28;;;19.29;53.76
59391;BME280;53405;57.012;40.984;2022-07-30T06:43:37;100347.28;;;19.42;53.59
59391;BME280;53405;57.012;40.984;2022-07-30T06:46:42;100338.97;;;19.20;55.51
59391;BME280;53405;57.012;40.984;2022-07-30T06:49:31;100353.63;;;19.29;53.97
59391;BME280;53405;57.012;40.984;2022-07-30T06:52:19;100360.06;;;19.40;54.57
59391;BME280;53405;57.012;40.984;2022-07-30T06:55:10;100360.00;;;19.59;54.80
59391;BME280;53405;57.012;40.984;2022-07-30T06:58:05;100363.59;;;19.64;52.84
59391;BME280;53405;57.012;40.984;2022-07-30T07:01:15;100365.00;;;19.67;53.80
59391;BME280;53405;57.012;40.984;2022-07-30T07:04:03;100353.06;;;19.70;53.66
59391;BME280;53405;57.012;40.984;2022-07-30T07:06:51;100359.97;;;19.77;53.58
59391;BME280;53405;57.012;40.984;2022-07-30T07:09:52;100363.31;;;19.84;53.44
59391;BME280;53405;57.012;40.984;2022-07-30T07:13:03;100366.25;;;19.95;53.04
59391;BME280;53405;57.012;40.984;2022-07-30T07:15:51;100343.63;;;19.67;53.47
59391;BME280;53405;57.012;40.984;2022-07-30T07:18:41;100365.72;;;19.74;55.19
59391;BME280;53405;57.012;40.984;2022-07-30T07:21:29;100355.31;;;19.84;52.50
59391;BME280;53405;57.012;40.984;2022-07-30T07:24:18;100367.00;;;19.72;52.99
59391;BME280;53405;57.012;40.984;2022-07-30T07:27:29;100362.84;;;19.76;53.75
59391;BME280;53405;57.012;40.984;2022-07-30T07:30:20;100361.94;;;19.94;53.81
59391;BME280;53405;57.012;40.984;2022-07-30T07:33:08;100372.06;;;20.03;53.13
59391;BME280;53405;57.012;40.984;2022-07-30T07:35:56;100374.13;;;19.90;52.78
59391;BME280;53405;57.012;40.984;2022-07-30T07:38:48;100367.56;;;19.74;53.49
59391;BME280;53405;57.012;40.984;2022-07-30T07:41:36;100367.41;;;19.87;52.68
59391;BME280;53405;57.012;40.984;2022-07-30T07:44:24;100372.63;;;19.82;53.24
59391;BME280;53405;57.012;40.984;2022-07-30T07:47:12;100361.00;;;19.76;54.06
59391;BME280;53405;57.012;40.984;2022-07-30T07:50:05;100366.94;;;19.90;53.93
59391;BME280;53405;57.012;40.984;2022-07-30T07:52:52;100359.63;;;20.09;53.47
59391;BME280;53405;57.012;40.984;2022-07-30T07:55:40;100354.53;;;20.31;53.56
59391;BME280;53405;57.012;40.984;2022-07-30T07:58:27;100362.19;;;20.75;51.39
59391;BME280;53405;57.012;40.984;2022-07-30T08:01:20;100343.78;;;20.67;50.26
59391;BME280;53405;57.012;40.984;2022-07-30T08:04:31;100360.09;;;20.53;52.36
59391;BME280;53405;57.012;40.984;2022-07-30T08:07:31;100356.00;;;20.63;52.51
59391;BME280;53405;57.012;40.984;2022-07-30T08:10:37;100354.44;;;20.90;51.60
59391;BME280;53405;57.012;40.984;2022-07-30T08:13:37;100369.53;;;20.97;50.34
59391;BME280;53405;57.012;40.984;2022-07-30T08:16:43;100371.16;;;20.69;51.43
59391;BME280;53405;57.012;40.984;2022-07-30T08:19:58;100363.22;;;20.74;51.38
59391;BME280;53405;57.012;40.984;2022-07-30T08:22:49;100356.28;;;21.02;50.71
59391;BME280;53405;57.012;40.984;2022-07-30T08:25:37;100355.06;;;21.38;51.22
59391;BME280;53405;57.012;40.984;2022-07-30T08:28:24;100345.97;;;21.68;50.01
59391;BME280;53405;57.012;40.984;2022-07-30T08:31:12;100327.50;;;22.06;49.34
59391;BME280;53405;57.012;40.984;2022-07-30T08:34:00;100345.53;;;22.10;47.41
59391;BME280;53405;57.012;40.984;2022-07-30T08:36:48;100339.59;;;22.86;45.92
59391;BME280;53405;57.012;40.984;2022-07-30T08:39:35;100340.72;;;23.40;45.20
59391;BME280;53405;57.012;40.984;2022-07-30T08:42:23;100351.06;;;23.58;43.64
59391;BME280;53405;57.012;40.984;2022-07-30T08:45:12;100352.50;;;23.71;45.26
59391;BME280;53405;57.012;40.984;2022-07-30T08:48:03;100342.50;;;24.37;42.40
59391;BME280;53405;57.012;40.984;2022-07-30T08:51:01;100348.72;;;25.05;42.06
59391;BME280;53405;57.012;40.984;2022-07-30T08:53:49;100351.63;;;24.88;41.78
59391;BME280;53405;57.012;40.984;2022-07-30T08:56:38;100356.88;;;25.36;40.34
59391;BME280;53405;57.012;40.984;2022-07-30T08:59:26;100351.16;;;25.07;39.76
59391;BME280;53405;57.012;40.984;2022-07-30T09:02:14;100350.03;;;23.92;41.77
59391;BME280;53405;57.012;40.984;2022-07-30T09:05:16;100344.03;;;24.70;41.75
59391;BME280;53405;57.012;40.984;2022-07-30T09:08:04;100349.34;;;25.85;39.69
59391;BME280;53405;57.012;40.984;2022-07-30T09:10:55;100349.59;;;25.32;39.92
59391;BME280;53405;57.012;40.984;2022-07-30T09:13:43;100351.41;;;23.99;42.92
59391;BME280;53405;57.012;40.984;2022-07-30T09:16:32;100344.41;;;23.34;44.61
59391;BME280;53405;57.012;40.984;2022-07-30T09:19:20;100344.06;;;24.27;42.92
59391;BME280;53405;57.012;40.984;2022-07-30T09:22:08;100355.94;;;23.61;45.26
59391;BME280;53405;57.012;40.984;2022-07-30T09:28:41;100341.69;;;22.62;45.62
59391;BME280;53405;57.012;40.984;2022-07-30T09:31:52;100343.63;;;22.28;47.00
59391;BME280;53405;57.012;40.984;2022-07-30T09:35:11;100334.25;;;22.08;48.39
59391;BME280;53405;57.012;40.984;2022-07-30T09:38:17;100347.34;;;21.88;47.66
59391;BME280;53405;57.012;40.984;2022-07-30T09:41:33;100346.84;;;21.74;48.68
59391;BME280;53405;57.012;40.984;2022-07-30T09:44:29;100340.19;;;21.59;48.57
59391;BME280;53405;57.012;40.984;2022-07-30T09:47:31;100341.66;;;22.79;44.76
59391;BME280;53405;57.012;40.984;2022-07-30T09:50:19;100343.78;;;23.26;43.96
59391;BME280;53405;57.012;40.984;2022-07-30T09:53:09;100334.78;;;22.66;47.04
59391;BME280;53405;57.012;40.984;2022-07-30T09:55:59;100344.06;;;22.36;46.75
59391;BME280;53405;57.012;40.984;2022-07-30T09:58:47;100351.56;;;23.55;42.97
59391;BME280;53405;57.012;40.984;2022-07-30T10:01:50;100339.66;;;25.32;40.72
59391;BME280;53405;57.012;40.984;2022-07-30T10:05:15;100345.56;;;25.81;38.31
59391;BME280;53405;57.012;40.984;2022-07-30T10:08:03;100337.91;;;26.44;37.15
59391;BME280;53405;57.012;40.984;2022-07-30T10:10:54;100349.97;;;26.78;36.24
59391;BME280;53405;57.012;40.984;2022-07-30T10:13:43;100342.06;;;26.86;35.91
59391;BME280;53405;57.012;40.984;2022-07-30T10:16:31;100357.97;;;25.82;38.85
59391;BME280;53405;57.012;40.984;2022-07-30T10:19:19;100350.78;;;24.83;41.00
59391;BME280;53405;57.012;40.984;2022-07-30T10:22:28;100348.03;;;24.14;40.24
59391;BME280;53405;57.012;40.984;2022-07-30T10:25:36;100352.25;;;23.73;41.96
59391;BME280;53405;57.012;40.984;2022-07-30T10:28:56;100355.84;;;23.51;41.41
59391;BME280;53405;57.012;40.984;2022-07-30T10:31:45;100351.94;;;23.64;42.54
59391;BME280;53405;57.012;40.984;2022-07-30T10:34:37;100347.13;;;25.20;39.27
59391;BME280;53405;57.012;40.984;2022-07-30T10:37:26;100346.91;;;25.42;39.33
59391;BME280;53405;57.012;40.984;2022-07-30T10:40:29;100355.91;;;24.79;39.53
59391;BME280;53405;57.012;40.984;2022-07-30T10:46:22;100355.00;;;22.96;43.71
59391;BME280;53405;57.012;40.984;2022-07-30T10:49:14;100362.13;;;22.63;45.80
59391;BME280;53405;57.012;40.984;2022-07-30T10:52:02;100357.50;;;22.81;45.24
59391;BME280;53405;57.012;40.984;2022-07-30T10:54:52;100365.00;;;22.57;46.24
59391;BME280;53405;57.012;40.984;2022-07-30T10:58:09;100366.09;;;22.61;44.93
59391;BME280;53405;57.012;40.984;2022-07-30T11:00:57;100371.66;;;22.76;45.44
59391;BME280;53405;57.012;40.984;2022-07-30T11:10:34;100359.84;;;24.13;41.57
59391;BME280;53405;57.012;40.984;2022-07-30T11:13:55;100368.09;;;24.39;41.14
59391;BME280;53405;57.012;40.984;2022-07-30T11:22:50;100372.59;;;27.37;35.33
59391;BME280;53405;57.012;40.984;2022-07-30T11:25:39;100357.56;;;27.20;35.35
59391;BME280;53405;57.012;40.984;2022-07-30T11:28:43;100367.63;;;27.10;35.87
59391;BME280;53405;57.012;40.984;2022-07-30T11:31:36;100370.22;;;26.75;37.00
59391;BME280;53405;57.012;40.984;2022-07-30T11:34:26;100360.78;;;26.67;36.84
59391;BME280;53405;57.012;40.984;2022-07-30T11:37:14;100361.63;;;27.57;35.79
59391;BME280;53405;57.012;40.984;2022-07-30T11:40:06;100354.69;;;27.46;35.03
59391;BME280;53405;57.012;40.984;2022-07-30T11:46:08;100363.69;;;28.29;33.75
59391;BME280;53405;57.012;40.984;2022-07-30T11:49:02;100361.00;;;28.29;32.18
59391;BME280;53405;57.012;40.984;2022-07-30T11:51:51;100358.03;;;28.02;32.75
59391;BME280;53405;57.012;40.984;2022-07-30T11:54:53;100357.72;;;28.03;32.53
59391;BME280;53405;57.012;40.984;2022-07-30T11:57:41;100345.16;;;28.42;32.27
59391;BME280;53405;57.012;40.984;2022-07-30T12:03:23;100346.19;;;28.46;31.33
59391;BME280;53405;57.012;40.984;2022-07-30T12:06:14;100357.50;;;27.26;34.11
59391;BME280;53405;57.012;40.984;2022-07-30T12:09:05;100343.59;;;27.03;34.54
59391;BME280;53405;57.012;40.984;2022-07-30T12:11:54;100354.19;;;27.44;34.65
59391;BME280;53405;57.012;40.984;2022-07-30T12:14:42;100352.56;;;28.07;33.93
59391;BME280;53405;57.012;40.984;2022-07-30T12:17:42;100349.72;;;27.58;33.70
59391;BME280;53405;57.012;40.984;2022-07-30T12:20:30;100319.63;;;26.26;34.37
59391;BME280;53405;57.012;40.984;2022-07-30T12:23:18;100331.56;;;25.37;36.00
59391;BME280;53405;57.012;40.984;2022-07-30T12:26:05;100340.84;;;24.88;38.34
59391;BME280;53405;57.012;40.984;2022-07-30T12:28:54;100339.13;;;24.57;38.51
59391;BME280;53405;57.012;40.984;2022-07-30T12:31:42;100335.75;;;24.34;39.01
59391;BME280;53405;57.012;40.984;2022-07-30T12:34:32;100327.16;;;24.42;38.53
59391;BME280;53405;57.012;40.984;2022-07-30T12:37:20;100320.78;;;24.53;37.92
59391;BME280;53405;57.012;40.984;2022-07-30T12:40:13;100329.31;;;24.40;38.54
59391;BME280;53405;57.012;40.984;2022-07-30T12:43:03;100332.16;;;24.18;38.25
59391;BME280;53405;57.012;40.984;2022-07-30T12:45:56;100327.81;;;24.12;38.35
59391;BME280;53405;57.012;40.984;2022-07-30T12:49:02;100324.34;;;24.16;38.32
59391;BME280;53405;57.012;40.984;2022-07-30T12:51:52;100323.84;;;24.20;38.00
59391;BME280;53405;57.012;40.984;2022-07-30T12:54:39;100327.31;;;24.15;38.00
59391;BME280;53405;57.012;40.984;2022-07-30T12:57:49;100328.72;;;23.85;38.86
59391;BME280;53405;57.012;40.984;2022-07-30T13:00:48;100310.31;;;23.67;40.08
59391;BME280;53405;57.012;40.984;2022-07-30T13:03:41;100322.16;;;23.76;40.35
59391;BME280;53405;57.012;40.984;2022-07-30T13:06:30;100292.75;;;23.59;38.45
59391;BME280;53405;57.012;40.984;2022-07-30T13:09:19;100316.69;;;23.93;38.78
59391;BME280;53405;57.012;40.984;2022-07-30T13:12:11;100313.31;;;24.13;36.82
59391;BME280;53405;57.012;40.984;2022-07-30T13:15:03;100311.19;;;24.20;38.05
59391;BME280;53405;57.012;40.984;2022-07-30T13:17:51;100299.38;;;24.26;37.33
59391;BME280;53405;57.012;40.984;2022-07-30T13:20:39;100309.69;;;23.92;39.64
59391;BME280;53405;57.012;40.984;2022-07-30T13:23:26;100309.31;;;23.78;38.85
59391;BME280;53405;57.012;40.984;2022-07-30T13:26:14;100321.50;;;23.91;39.05
59391;BME280;53405;57.012;40.984;2022-07-30T13:29:03;100321.22;;;23.87;38.31
59391;BME280;53405;57.012;40.984;2022-07-30T13:31:50;100316.53;;;23.77;39.95
59391;BME280;53405;57.012;40.984;2022-07-30T13:34:38;100308.84;;;23.86;39.91
59391;BME280;53405;57.012;40.984;2022-07-30T13:37:28;100305.16;;;24.03;37.55
59391;BME280;53405;57.012;40.984;2022-07-30T13:40:15;100314.63;;;24.10;37.03
59391;BME280;53405;57.012;40.984;2022-07-30T13:43:03;100312.72;;;24.06;37.00
59391;BME280;53405;57.012;40.984;2022-07-30T13:45:51;100309.00;;;24.12;36.92
59391;BME280;53405;57.012;40.984;2022-07-30T13:48:39;100321.16;;;24.20;36.79
59391;BME280;53405;57.012;40.984;2022-07-30T13:51:26;100316.91;;;23.86;39.66
59391;BME280;53405;57.012;40.984;2022-07-30T13:54:14;100306.88;;;23.76;37.81
59391;BME280;53405;57.012;40.984;2022-07-30T13:57:01;100312.50;;;23.75;38.31
59391;BME280;53405;57.012;40.984;2022-07-30T13:59:50;100302.50;;;23.65;38.77
59391;BME280;53405;57.012;40.984;2022-07-30T14:02:37;100306.75;;;23.61;38.60
59391;BME280;53405;57.012;40.984;2022-07-30T14:05:25;100312.66;;;23.63;38.94
59391;BME280;53405;57.012;40.984;2022-07-30T14:08:12;100316.81;;;23.43;39.49
59391;BME280;53405;57.012;40.984;2022-07-30T14:11:00;100301.88;;;23.25;38.85
59391;BME280;53405;57.012;40.984;2022-07-30T14:13:49;100311.16;;;23.13;38.61
59391;BME280;53405;57.012;40.984;2022-07-30T14:16:38;100299.78;;;23.05;37.82
59391;BME280;53405;57.012;40.984;2022-07-30T14:19:32;100302.66;;;22.99;38.66
59391;BME280;53405;57.012;40.984;2022-07-30T14:22:20;100295.56;;;22.87;38.65
59391;BME280;53405;57.012;40.984;2022-07-30T14:25:09;100299.00;;;22.83;39.63
59391;BME280;53405;57.012;40.984;2022-07-30T14:27:56;100306.16;;;22.72;39.75
59391;BME280;53405;57.012;40.984;2022-07-30T14:30:44;100302.94;;;22.75;38.49
59391;BME280;53405;57.012;40.984;2022-07-30T14:33:32;100298.66;;;23.01;38.02
59391;BME280;53405;57.012;40.984;2022-07-30T14:36:20;100300.53;;;23.23;37.28
59391;BME280;53405;57.012;40.984;2022-07-30T14:39:08;100300.16;;;23.14;38.00
59391;BME280;53405;57.012;40.984;2022-07-30T14:41:56;100304.25;;;23.22;36.64
59391;BME280;53405;57.012;40.984;2022-07-30T14:44:43;100293.47;;;23.17;37.53
59391;BME280;53405;57.012;40.984;2022-07-30T14:47:31;100295.34;;;23.16;36.87
59391;BME280;53405;57.012;40.984;2022-07-30T14:50:18;100296.13;;;23.12;38.38
59391;BME280;53405;57.012;40.984;2022-07-30T14:53:06;100286.91;;;23.07;36.93
59391;BME280;53405;57.012;40.984;2022-07-30T14:55:53;100291.81;;;23.11;37.33
59391;BME280;53405;57.012;40.984;2022-07-30T14:58:41;100291.63;;;23.22;38.57
59391;BME280;53405;57.012;40.984;2022-07-30T15:01:29;100290.34;;;23.30;36.75
59391;BME280;53405;57.012;40.984;2022-07-30T15:04:16;100283.19;;;23.41;37.75
59391;BME280;53405;57.012;40.984;2022-07-30T15:07:04;100290.47;;;23.40;37.83
59391;BME280;53405;57.012;40.984;2022-07-30T15:09:52;100294.16;;;23.34;39.94
59391;BME280;53405;57.012;40.984;2022-07-30T15:12:40;100296.47;;;23.20;39.97
59391;BME280;53405;57.012;40.984;2022-07-30T15:15:27;100297.66;;;23.07;37.53
59391;BME280;53405;57.012;40.984;2022-07-30T15:18:15;100304.75;;;22.91;38.39